createdAt,value
2017-08-29T00:01:13.378Z,10.10
2017-08-29T00:03:39.632Z,11.87
2017-08-29T00:06:05.869Z,9.60
2017-08-29T00:08:32.077Z,9.33
2017-08-29T00:10:58.354Z,9.10
2017-08-29T00:13:24.568Z,10.20
2017-08-29T00:15:50.796Z,9.93
2017-08-29T00:18:17.259Z,9.90
2017-08-29T00:20:43.491Z,10.10
2017-08-29T00:23:09.714Z,11.90
2017-08-29T00:25:36.245Z,9.43
2017-08-29T00:28:02.454Z,12.53
2017-08-29T00:30:28.696Z,8.27
2017-08-29T00:32:55.137Z,8.50
2017-08-29T00:35:21.395Z,8.53
2017-08-29T00:37:47.645Z,9.60
2017-08-29T00:40:13.989Z,10.00
2017-08-29T00:42:40.239Z,13.20
2017-08-29T00:45:06.476Z,9.10
2017-08-29T00:47:33.022Z,8.53
2017-08-29T00:49:59.284Z,13.13
2017-08-29T00:52:25.530Z,10.50
2017-08-29T00:54:51.782Z,12.23
2017-08-29T00:57:18.037Z,13.67
2017-08-29T00:59:44.565Z,11.60
2017-08-29T01:02:10.830Z,8.10
2017-08-29T01:04:37.058Z,8.30
2017-08-29T01:07:03.666Z,14.10
2017-08-29T01:09:29.914Z,8.50
2017-08-29T01:11:56.170Z,8.23
2017-08-29T01:14:22.418Z,12.50
2017-08-29T01:16:48.662Z,8.60
2017-08-29T01:19:14.907Z,8.23
2017-08-29T01:21:41.185Z,9.80
2017-08-29T01:24:07.443Z,8.50
2017-08-29T01:26:33.676Z,8.80
2017-08-29T01:28:59.942Z,9.47
2017-08-29T01:31:26.218Z,8.20
2017-08-29T01:33:52.445Z,10.60
2017-08-29T01:36:18.705Z,8.93
2017-08-29T01:38:44.920Z,8.03
2017-08-29T01:41:11.155Z,9.17
2017-08-29T01:43:37.420Z,8.40
2017-08-29T01:46:03.663Z,8.17
2017-08-29T01:48:29.904Z,7.83
2017-08-29T01:50:56.221Z,8.03
2017-08-29T01:53:22.467Z,7.77
2017-08-29T01:55:48.690Z,7.93
2017-08-29T01:58:15.256Z,8.27
2017-08-29T02:00:41.484Z,9.10
2017-08-29T02:03:07.738Z,8.97
2017-08-29T02:05:33.996Z,8.80
2017-08-29T02:08:00.347Z,12.40
2017-08-29T02:10:26.575Z,9.00
2017-08-29T02:12:52.920Z,8.40
2017-08-29T02:15:19.131Z,8.83
2017-08-29T02:17:45.344Z,7.40
2017-08-29T02:20:11.596Z,7.77
2017-08-29T02:22:37.796Z,7.43
2017-08-29T02:25:04.016Z,8.63
2017-08-29T02:27:30.428Z,8.87
2017-08-29T02:29:56.647Z,7.33
2017-08-29T02:32:22.862Z,11.83
2017-08-29T02:34:49.126Z,7.80
2017-08-29T02:37:15.331Z,7.77
2017-08-29T02:39:41.531Z,8.20
2017-08-29T02:42:07.764Z,7.77
2017-08-29T02:44:33.991Z,12.10
2017-08-29T02:47:00.193Z,8.03
2017-08-29T02:49:26.515Z,6.63
2017-08-29T02:51:52.725Z,7.70
2017-08-29T02:54:18.941Z,9.33
2017-08-29T02:56:45.160Z,10.63
2017-08-29T02:59:11.371Z,8.57
2017-08-29T03:01:37.594Z,10.40
2017-08-29T03:04:03.840Z,7.80
2017-08-29T03:06:30.054Z,7.40
2017-08-29T03:08:56.799Z,7.60
2017-08-29T03:11:22.991Z,8.13
2017-08-29T03:13:49.195Z,6.93
2017-08-29T03:16:15.435Z,7.43
2017-08-29T03:18:41.638Z,7.00
2017-08-29T03:21:07.857Z,9.87
2017-08-29T03:23:34.093Z,7.20
2017-08-29T03:26:00.293Z,7.07
2017-08-29T03:28:26.500Z,11.67
2017-08-29T03:30:52.944Z,7.37
2017-08-29T03:33:19.150Z,7.20
2017-08-29T03:35:45.360Z,7.20
2017-08-29T03:38:11.930Z,6.93
2017-08-29T03:40:38.127Z,6.77
2017-08-29T03:43:04.332Z,8.47
2017-08-29T03:45:30.568Z,7.53
2017-08-29T03:47:56.774Z,7.80
2017-08-29T03:50:22.993Z,7.03
2017-08-29T03:52:49.236Z,7.63
2017-08-29T03:55:15.441Z,7.00
2017-08-29T03:57:41.648Z,6.80
2017-08-29T04:00:07.948Z,9.27
2017-08-29T04:02:34.164Z,10.50
2017-08-29T04:05:00.370Z,7.10
2017-08-29T04:07:26.596Z,7.13
2017-08-29T04:09:52.843Z,6.17
2017-08-29T04:12:19.049Z,9.40
2017-08-29T04:14:45.297Z,7.20
2017-08-29T04:17:11.505Z,6.30
2017-08-29T04:19:37.738Z,6.97
2017-08-29T04:22:03.931Z,7.07
2017-08-29T04:24:30.142Z,7.10
2017-08-29T04:26:56.702Z,6.43
2017-08-29T04:29:22.919Z,11.03
2017-08-29T04:31:49.124Z,6.73
2017-08-29T04:34:16.234Z,7.30
2017-08-29T04:36:43.531Z,5.90
2017-08-29T04:39:11.023Z,6.30
2017-08-29T04:41:38.542Z,6.80
2017-08-29T04:44:05.413Z,7.90
2017-08-29T04:46:32.423Z,7.70
2017-08-29T04:49:00.405Z,6.50
2017-08-29T04:51:27.434Z,5.17
2017-08-29T04:53:54.418Z,6.63
2017-08-29T04:56:24.552Z,6.43
2017-08-29T04:58:51.738Z,6.23
2017-08-29T05:01:20.689Z,5.60
2017-08-29T05:03:49.017Z,5.13
2017-08-29T05:06:15.310Z,5.87
2017-08-29T05:08:41.539Z,5.73
2017-08-29T05:11:07.796Z,4.93
2017-08-29T05:13:34.016Z,6.73
2017-08-29T05:16:00.509Z,5.97
2017-08-29T05:18:27.760Z,7.17
2017-08-29T05:20:53.971Z,9.70
2017-08-29T05:23:20.220Z,7.70
2017-08-29T05:25:46.648Z,5.20
2017-08-29T05:28:12.851Z,5.90
2017-08-29T05:30:39.095Z,6.00
2017-08-29T05:33:05.316Z,8.70
2017-08-29T05:35:31.532Z,4.90
2017-08-29T05:37:57.742Z,6.23
2017-08-29T05:40:23.969Z,4.70
2017-08-29T05:42:50.224Z,9.53
2017-08-29T05:45:16.432Z,7.30
2017-08-29T05:47:42.639Z,5.40
2017-08-29T05:50:09.231Z,7.10
2017-08-29T05:52:35.475Z,4.67
2017-08-29T05:55:01.753Z,5.20
2017-08-29T05:57:28.028Z,5.80
2017-08-29T05:59:54.387Z,6.20
2017-08-29T06:02:20.651Z,6.20
2017-08-29T06:04:46.879Z,5.20
2017-08-29T06:07:13.107Z,6.80
2017-08-29T06:09:39.680Z,4.97
2017-08-29T06:12:05.958Z,9.40
2017-08-29T06:14:32.222Z,5.80
2017-08-29T06:16:58.452Z,7.30
2017-08-29T06:19:24.755Z,8.43
2017-08-29T06:21:50.963Z,6.07
2017-08-29T06:24:17.172Z,5.50
2017-08-29T06:26:43.958Z,5.30
2017-08-29T06:29:10.186Z,6.03
2017-08-29T06:31:36.938Z,5.30
2017-08-29T06:34:03.154Z,5.57
2017-08-29T06:36:29.379Z,5.50
2017-08-29T06:38:55.839Z,5.67
2017-08-29T06:41:22.359Z,9.37
2017-08-29T06:43:48.689Z,12.03
2017-08-29T06:46:15.239Z,9.00
2017-08-29T06:48:41.464Z,11.10
2017-08-29T06:51:07.667Z,9.40
2017-08-29T06:53:34.131Z,7.23
2017-08-29T06:56:00.488Z,7.03
2017-08-29T06:58:26.715Z,9.83
2017-08-29T07:00:52.960Z,10.83
2017-08-29T07:03:19.154Z,6.00
2017-08-29T07:05:45.356Z,6.20
2017-08-29T07:08:11.571Z,10.00
2017-08-29T07:10:37.796Z,7.77
2017-08-29T07:13:04.049Z,5.90
2017-08-29T07:15:30.291Z,9.73
2017-08-29T07:17:56.483Z,7.60
2017-08-29T07:20:22.800Z,13.47
2017-08-29T07:22:49.000Z,10.73
2017-08-29T07:25:15.215Z,8.50
2017-08-29T07:27:41.452Z,8.80
2017-08-29T07:30:07.664Z,6.87
2017-08-29T07:32:34.139Z,7.60
2017-08-29T07:35:00.359Z,6.30
2017-08-29T07:37:26.562Z,9.90
2017-08-29T07:39:53.092Z,8.67
2017-08-29T07:42:19.303Z,9.83
2017-08-29T07:44:45.501Z,6.10
2017-08-29T07:47:11.746Z,8.40
2017-08-29T07:49:37.975Z,9.23
2017-08-29T07:52:04.209Z,9.07
2017-08-29T07:54:30.657Z,6.77
2017-08-29T07:56:56.890Z,8.00
2017-08-29T07:59:23.164Z,5.27
2017-08-29T08:01:49.492Z,8.10
2017-08-29T08:04:15.720Z,6.30
2017-08-29T08:06:41.943Z,7.50
2017-08-29T08:09:08.195Z,8.70
2017-08-29T08:11:34.430Z,5.00
2017-08-29T08:14:00.668Z,6.90
2017-08-29T08:16:27.219Z,7.13
2017-08-29T08:18:53.472Z,7.73
2017-08-29T08:21:19.709Z,12.50
2017-08-29T08:23:45.925Z,6.97
2017-08-29T08:26:12.160Z,7.80
2017-08-29T08:28:38.435Z,7.20
2017-08-29T08:31:04.766Z,7.13
2017-08-29T08:33:30.964Z,7.90
2017-08-29T08:35:57.440Z,13.30
2017-08-29T08:38:23.642Z,11.93
2017-08-29T08:40:49.909Z,14.83
2017-08-29T08:43:16.152Z,12.37
2017-08-29T08:45:42.360Z,13.83
2017-08-29T08:48:08.573Z,8.47
2017-08-29T08:50:35.399Z,10.53
2017-08-29T08:53:01.616Z,6.50
2017-08-29T08:55:27.824Z,5.50
2017-08-29T08:58:01.305Z,5.77
2017-08-29T09:00:27.572Z,5.23
2017-08-29T09:02:53.800Z,5.97
2017-08-29T09:05:20.048Z,11.20
2017-08-29T09:07:46.267Z,15.60
2017-08-29T09:10:12.529Z,10.57
2017-08-29T09:12:38.729Z,9.57
2017-08-29T09:15:04.963Z,17.27
2017-08-29T09:17:31.319Z,13.57
2017-08-29T09:19:57.594Z,32.00
2017-08-29T09:22:23.827Z,8.00
2017-08-29T09:24:50.076Z,9.80
2017-08-29T09:27:16.291Z,10.47
2017-08-29T09:29:42.619Z,6.40
2017-08-29T09:32:08.861Z,10.53
2017-08-29T09:34:35.055Z,16.50
2017-08-29T09:37:01.330Z,8.23
2017-08-29T09:39:27.555Z,8.13
2017-08-29T09:41:53.761Z,33.73
2017-08-29T09:44:19.969Z,8.80
2017-08-29T09:46:46.620Z,11.80
2017-08-29T09:49:12.836Z,6.20
2017-08-29T09:51:39.056Z,9.03
2017-08-29T09:54:05.352Z,14.80
2017-08-29T09:56:31.586Z,6.10
2017-08-29T09:58:57.815Z,21.07
2017-08-29T10:01:24.077Z,6.53
2017-08-29T10:03:50.275Z,6.20
2017-08-29T10:06:16.484Z,8.40
2017-08-29T10:08:42.719Z,11.27
2017-08-29T10:11:08.936Z,10.17
2017-08-29T10:13:35.720Z,6.30
2017-08-29T10:16:02.333Z,8.27
2017-08-29T10:18:28.568Z,8.77
2017-08-29T10:20:55.076Z,5.83
2017-08-29T10:23:21.326Z,10.53
2017-08-29T10:25:47.540Z,5.90
2017-08-29T10:28:13.747Z,6.63
2017-08-29T10:30:39.997Z,5.87
2017-08-29T10:33:06.444Z,7.90
2017-08-29T10:35:33.000Z,6.13
2017-08-29T10:37:59.374Z,6.10
2017-08-29T10:40:25.698Z,5.50
2017-08-29T10:42:51.908Z,5.57
2017-08-29T10:45:18.173Z,10.03
2017-08-29T10:47:44.407Z,7.67
2017-08-29T10:50:10.646Z,6.80
2017-08-29T10:52:36.892Z,8.13
2017-08-29T10:55:03.259Z,7.07
2017-08-29T10:57:29.518Z,10.30
2017-08-29T10:59:55.735Z,7.20
2017-08-29T11:02:21.958Z,6.03
2017-08-29T11:04:48.872Z,7.57
2017-08-29T11:07:15.102Z,8.47
2017-08-29T11:09:41.331Z,7.17
2017-08-29T11:12:07.548Z,6.20
2017-08-29T11:14:33.815Z,6.47
2017-08-29T11:17:00.031Z,9.73
2017-08-29T11:19:26.258Z,8.80
2017-08-29T11:21:52.525Z,7.23
2017-08-29T11:24:18.778Z,7.33
2017-08-29T11:26:45.075Z,6.50
2017-08-29T11:29:11.728Z,10.87
2017-08-29T11:31:37.951Z,7.73
2017-08-29T11:34:04.182Z,15.83
2017-08-29T11:36:30.467Z,8.90
2017-08-29T11:38:56.694Z,10.50
2017-08-29T11:41:22.918Z,12.03
2017-08-29T11:43:49.171Z,8.40
2017-08-29T11:46:15.395Z,9.10
2017-08-29T11:48:41.654Z,14.57
2017-08-29T11:51:07.892Z,13.07
2017-08-29T11:53:34.139Z,14.10
2017-08-29T11:56:00.384Z,9.83
2017-08-29T11:58:26.700Z,9.93
2017-08-29T12:00:52.981Z,14.87
2017-08-29T12:03:19.224Z,14.20
2017-08-29T12:05:45.466Z,13.63
2017-08-29T12:08:11.724Z,21.97
2017-08-29T12:10:37.975Z,17.33
2017-08-29T12:13:04.187Z,14.20
2017-08-29T12:15:30.404Z,18.03
2017-08-29T12:17:56.644Z,14.70
2017-08-29T12:20:22.874Z,11.40
2017-08-29T12:22:49.316Z,14.57
2017-08-29T12:25:15.655Z,10.90
2017-08-29T12:27:41.855Z,9.90
2017-08-29T12:30:08.078Z,12.57
2017-08-29T12:32:34.777Z,9.83
2017-08-29T12:35:00.990Z,10.40
2017-08-29T12:37:27.215Z,8.90
2017-08-29T12:39:53.535Z,8.23
2017-08-29T12:42:19.743Z,10.33
2017-08-29T12:44:45.976Z,9.70
2017-08-29T12:47:12.252Z,13.13
2017-08-29T12:49:38.476Z,9.60
2017-08-29T12:52:04.699Z,10.97
2017-08-29T12:54:30.937Z,11.57
2017-08-29T12:56:57.195Z,10.43
2017-08-29T12:59:23.426Z,10.50
2017-08-29T13:01:49.669Z,10.00
2017-08-29T13:04:15.902Z,8.27
2017-08-29T13:06:42.117Z,9.47
2017-08-29T13:09:08.333Z,10.10
2017-08-29T13:11:34.668Z,9.20
2017-08-29T13:14:00.887Z,10.13
2017-08-29T13:16:27.092Z,8.87
2017-08-29T13:18:53.340Z,9.43
2017-08-29T13:21:19.564Z,8.10
2017-08-29T13:23:45.800Z,15.40
2017-08-29T13:26:12.092Z,10.60
2017-08-29T13:28:38.299Z,10.77
2017-08-29T13:31:04.512Z,12.23
2017-08-29T13:33:32.583Z,13.97
2017-08-29T13:35:58.787Z,11.50
2017-08-29T13:38:24.991Z,10.60
2017-08-29T13:40:51.222Z,10.47
2017-08-29T13:43:17.439Z,8.40
2017-08-29T13:45:43.651Z,9.10
2017-08-29T13:48:10.093Z,9.80
2017-08-29T13:50:36.293Z,13.43
2017-08-29T13:53:02.535Z,10.53
2017-08-29T13:55:28.749Z,13.83
2017-08-29T13:57:54.951Z,10.90
2017-08-29T14:00:21.172Z,10.70
2017-08-29T14:02:47.408Z,11.20
2017-08-29T14:05:20.678Z,9.70
2017-08-29T14:07:46.906Z,9.30
2017-08-29T14:10:13.167Z,10.17
2017-08-29T14:12:39.388Z,8.40
2017-08-29T14:15:05.632Z,14.97
2017-08-29T14:17:31.971Z,8.20
2017-08-29T14:19:58.230Z,13.30
2017-08-29T14:22:24.516Z,14.73
2017-08-29T14:24:50.760Z,30.13
2017-08-29T14:27:17.002Z,11.73
2017-08-29T14:29:44.471Z,21.47
2017-08-29T14:32:18.592Z,18.57
2017-08-29T14:34:53.228Z,23.47
2017-08-29T14:37:20.617Z,10.10
2017-08-29T14:39:47.828Z,16.50
2017-08-29T14:42:15.372Z,12.10
2017-08-29T14:44:42.690Z,16.63
2017-08-29T14:47:28.156Z,19.17
2017-08-29T14:49:56.539Z,14.20
2017-08-29T14:52:23.939Z,19.47
2017-08-29T14:54:51.366Z,13.13
2017-08-29T14:57:19.569Z,14.00
2017-08-29T14:59:46.745Z,15.43
2017-08-29T15:02:14.950Z,24.60
2017-08-29T15:04:42.181Z,13.30
2017-08-29T15:07:09.435Z,15.87
2017-08-29T15:09:36.563Z,14.53
2017-08-29T15:12:04.072Z,17.37
2017-08-29T15:14:31.131Z,31.03
2017-08-29T15:17:00.419Z,40.73
2017-08-29T15:19:27.896Z,16.90
2017-08-29T15:21:56.731Z,17.40
2017-08-29T15:24:25.034Z,20.17
2017-08-29T15:26:52.408Z,18.40
2017-08-29T15:29:19.746Z,20.17
2017-08-29T15:31:47.826Z,20.43
2017-08-29T15:34:15.193Z,42.67
2017-08-29T15:36:42.674Z,26.43
2017-08-29T15:39:10.528Z,32.07
2017-08-29T15:41:37.785Z,85.37
2017-08-29T15:44:05.365Z,30.50
2017-08-29T15:46:32.732Z,49.07
2017-08-29T15:49:00.032Z,31.63
2017-08-29T15:51:29.184Z,21.60
2017-08-29T15:53:56.516Z,21.40
2017-08-29T15:56:23.691Z,29.17
2017-08-29T15:58:51.612Z,26.20
2017-08-29T16:01:19.070Z,21.50
2017-08-29T16:03:47.538Z,31.17
2017-08-29T16:06:14.960Z,20.77
2017-08-29T16:08:42.306Z,34.83
2017-08-29T16:11:10.514Z,27.23
2017-08-29T16:13:38.635Z,22.93
2017-08-29T16:16:06.015Z,57.17
2017-08-29T16:18:33.586Z,33.43
2017-08-29T16:21:01.015Z,35.97
2017-08-29T16:23:28.338Z,39.57
2017-08-29T16:25:55.868Z,33.73
2017-08-29T16:28:23.741Z,48.93
2017-08-29T16:30:51.607Z,40.67
2017-08-29T16:33:22.138Z,44.93
2017-08-29T16:35:50.206Z,25.17
2017-08-29T16:38:18.074Z,51.80
2017-08-29T16:40:46.472Z,55.37
2017-08-29T16:43:14.658Z,66.80
2017-08-29T16:45:42.439Z,96.90
2017-08-29T16:48:10.842Z,31.13
2017-08-29T16:50:39.387Z,54.43
2017-08-29T16:53:07.706Z,98.90
2017-08-29T16:55:36.834Z,80.23
2017-08-29T16:58:04.808Z,32.60
2017-08-29T17:00:32.691Z,60.80
2017-08-29T17:03:00.023Z,59.97
2017-08-29T17:05:27.596Z,45.83
2017-08-29T17:07:55.348Z,33.00
2017-08-29T17:10:22.660Z,112.47
2017-08-29T17:12:51.347Z,45.33
2017-08-29T17:15:18.873Z,124.07
2017-08-29T17:17:47.071Z,51.10
2017-08-29T17:20:14.579Z,92.73
2017-08-29T17:22:42.778Z,43.33
2017-08-29T17:25:10.262Z,52.97
2017-08-29T17:27:39.664Z,69.33
2017-08-29T17:30:09.280Z,61.80
2017-08-29T17:32:36.736Z,123.60
2017-08-29T17:35:05.073Z,70.23
2017-08-29T17:37:32.681Z,53.87
2017-08-29T17:40:00.721Z,48.70
2017-08-29T17:42:29.057Z,40.23
2017-08-29T17:44:56.437Z,70.63
2017-08-29T17:47:24.951Z,125.33
2017-08-29T17:49:53.507Z,113.40
2017-08-29T17:52:22.142Z,73.37
2017-08-29T17:54:49.832Z,175.70
2017-08-29T17:57:17.465Z,272.83
2017-08-29T17:59:45.888Z,64.47
2017-08-29T18:02:14.207Z,46.83
2017-08-29T18:04:41.718Z,67.10
2017-08-29T18:07:08.969Z,24.63
2017-08-29T18:09:36.609Z,42.50
2017-08-29T18:12:04.996Z,58.13
2017-08-29T18:14:32.337Z,54.13
2017-08-29T18:17:00.101Z,41.80
2017-08-29T18:19:28.327Z,34.63
2017-08-29T18:21:55.749Z,34.30
2017-08-29T18:24:23.003Z,30.67
2017-08-29T18:26:50.443Z,57.27
2017-08-29T18:29:18.116Z,34.50
2017-08-29T18:31:45.431Z,37.33
2017-08-29T18:34:12.932Z,29.00
2017-08-29T18:36:40.520Z,32.63
2017-08-29T18:39:07.875Z,35.53
2017-08-29T18:41:35.251Z,27.13
2017-08-29T18:44:02.549Z,32.40
2017-08-29T18:46:30.080Z,23.17
2017-08-29T18:48:57.457Z,33.87
2017-08-29T18:51:24.699Z,29.20
2017-08-29T18:53:52.989Z,27.20
2017-08-29T18:56:21.248Z,30.00
2017-08-29T18:58:48.856Z,30.90
2017-08-29T19:01:17.436Z,36.10
2017-08-29T19:03:45.061Z,51.53
2017-08-29T19:06:12.402Z,90.03
2017-08-29T19:08:42.958Z,46.77
2017-08-29T19:11:11.336Z,42.60
2017-08-29T19:13:38.848Z,43.80
2017-08-29T19:16:06.771Z,50.10
2017-08-29T19:18:35.397Z,45.60
2017-08-29T19:21:08.530Z,34.27
2017-08-29T19:23:40.872Z,47.03
2017-08-29T19:26:11.225Z,36.17
2017-08-29T19:34:45.323Z,50.07
2017-08-29T19:37:12.770Z,49.73
2017-08-29T19:39:40.038Z,37.97
2017-08-29T19:42:07.821Z,33.77
2017-08-29T19:44:35.429Z,37.57
2017-08-29T19:47:03.700Z,34.80
2017-08-29T19:49:32.196Z,37.40
2017-08-29T19:51:59.701Z,47.83
2017-08-29T19:54:27.613Z,47.83
2017-08-29T19:56:55.682Z,43.30
2017-08-29T19:59:23.202Z,41.90
2017-08-29T20:01:50.717Z,40.70
2017-08-29T20:04:19.761Z,47.30
2017-08-29T20:06:47.260Z,45.40
2017-08-29T20:09:13.745Z,47.70
2017-08-29T20:11:40.102Z,38.27
2017-08-29T20:14:06.378Z,33.90
2017-08-29T20:16:32.666Z,37.57
2017-08-29T20:18:59.622Z,42.40
2017-08-29T20:21:25.872Z,36.40
2017-08-29T20:23:52.131Z,37.67
2017-08-29T20:26:18.777Z,36.60
2017-08-29T20:28:45.032Z,41.40
2017-08-29T20:31:11.271Z,35.07
2017-08-29T20:33:37.520Z,40.33
2017-08-29T20:36:03.797Z,37.83
2017-08-29T20:38:30.040Z,42.20
2017-08-29T20:40:56.512Z,42.20
2017-08-29T20:43:22.868Z,39.40
2017-08-29T20:45:49.215Z,36.17
2017-08-29T20:48:15.752Z,42.30
2017-08-29T20:50:42.123Z,35.93
2017-08-29T20:53:08.456Z,53.63
2017-08-29T20:55:35.718Z,38.27
2017-08-29T20:58:02.088Z,43.67
2017-08-29T21:00:28.551Z,38.93
2017-08-29T21:02:54.960Z,37.57
2017-08-29T21:05:22.580Z,39.20
2017-08-29T21:07:48.992Z,38.07
2017-08-29T21:10:15.343Z,42.77
2017-08-29T21:12:42.545Z,43.97
2017-08-29T21:15:08.910Z,41.33
2017-08-29T21:17:35.889Z,38.63
2017-08-29T21:20:03.176Z,40.50
2017-08-29T21:22:32.036Z,38.13
2017-08-29T21:24:59.121Z,40.60
2017-08-29T21:27:25.357Z,38.17
2017-08-29T21:29:51.593Z,41.13
2017-08-29T21:32:18.089Z,46.03
2017-08-29T21:34:44.385Z,38.97
2017-08-29T21:37:10.993Z,40.33
2017-08-29T21:39:37.261Z,45.07
2017-08-29T21:42:03.637Z,42.47
2017-08-29T21:44:30.009Z,40.60
2017-08-29T21:46:56.272Z,53.40
2017-08-29T21:49:22.536Z,45.00
2017-08-29T21:51:48.765Z,46.30
2017-08-29T21:54:15.028Z,46.17
2017-08-29T21:56:41.292Z,49.93
2017-08-29T21:59:07.560Z,42.73
2017-08-29T22:01:33.901Z,45.83
2017-08-29T22:04:00.153Z,45.77
2017-08-29T22:06:26.753Z,43.63
2017-08-29T22:08:52.981Z,45.07
2017-08-29T22:11:19.248Z,43.60
2017-08-29T22:13:45.637Z,48.80
2017-08-29T22:16:11.870Z,48.10
2017-08-29T22:18:38.127Z,43.90
2017-08-29T22:21:04.392Z,46.37
2017-08-29T22:23:30.613Z,41.33
2017-08-29T22:25:56.861Z,42.87
2017-08-29T22:28:23.160Z,37.20
2017-08-29T22:30:49.365Z,44.10
2017-08-29T22:33:15.697Z,40.83
2017-08-29T22:35:42.311Z,39.33
2017-08-29T22:38:09.308Z,36.87
2017-08-29T22:40:35.721Z,40.97
2017-08-29T22:43:01.968Z,44.57
2017-08-29T22:45:28.208Z,45.30
2017-08-29T22:47:54.441Z,39.00
2017-08-29T22:50:20.856Z,42.00
2017-08-29T22:52:47.077Z,38.67
2017-08-29T22:55:13.304Z,44.60
2017-08-29T22:57:39.520Z,37.40
2017-08-29T23:00:05.827Z,39.73
2017-08-29T23:02:32.082Z,40.03
2017-08-29T23:04:58.325Z,46.07
2017-08-29T23:07:24.548Z,42.13
2017-08-29T23:09:50.816Z,34.50
2017-08-29T23:12:17.103Z,40.40
2017-08-29T23:14:43.326Z,51.07
2017-08-29T23:17:09.566Z,44.93
2017-08-29T23:19:36.551Z,44.40
2017-08-29T23:22:02.829Z,45.47
2017-08-29T23:24:29.067Z,47.63
2017-08-29T23:26:55.300Z,45.07
2017-08-29T23:29:21.868Z,50.40
2017-08-29T23:31:48.464Z,41.30
2017-08-29T23:34:14.829Z,46.30
2017-08-29T23:36:41.266Z,39.90
2017-08-29T23:39:07.814Z,43.33
2017-08-29T23:41:34.063Z,42.40
2017-08-29T23:44:00.300Z,49.67
2017-08-29T23:46:26.593Z,42.30
2017-08-29T23:48:52.836Z,43.87
2017-08-29T23:51:19.115Z,42.53
2017-08-29T23:53:45.405Z,43.67
2017-08-29T23:56:11.631Z,49.33
2017-08-29T23:58:37.902Z,51.20
